sensor_id;sensor_type;location;lat;lon;timestamp;temperature;humidity
18207;DHT22;9229;52.354;20.886;2023-06-24T00:02:59;19.40;95.60
18207;DHT22;9229;52.354;20.886;2023-06-24T00:08:04;19.40;95.60
18207;DHT22;9229;52.354;20.886;2023-06-24T00:13:07;19.20;95.90
18207;DHT22;9229;52.354;20.886;2023-06-24T00:18:12;19.20;96.10
18207;DHT22;9229;52.354;20.886;2023-06-24T00:23:17;19.20;96.20
18207;DHT22;9229;52.354;20.886;2023-06-24T00:28:25;19.10;96.40
18207;DHT22;9229;52.354;20.886;2023-06-24T00:33:29;19.10;96.50
18207;DHT22;9229;52.354;20.886;2023-06-24T00:38:36;19.00;96.50
18207;DHT22;9229;52.354;20.886;2023-06-24T00:43:38;19.10;96.60
18207;DHT22;9229;52.354;20.886;2023-06-24T00:48:42;19.00;96.60
18207;DHT22;9229;52.354;20.886;2023-06-24T00:53:44;19.00;96.70
18207;DHT22;9229;52.354;20.886;2023-06-24T00:58:47;18.90;97.00
18207;DHT22;9229;52.354;20.886;2023-06-24T01:03:51;18.80;97.30
18207;DHT22;9229;52.354;20.886;2023-06-24T01:08:53;18.70;97.70
18207;DHT22;9229;52.354;20.886;2023-06-24T01:13:57;18.60;98.20
18207;DHT22;9229;52.354;20.886;2023-06-24T01:19:14;18.60;98.60
18207;DHT22;9229;52.354;20.886;2023-06-24T01:24:35;18.60;99.10
18207;DHT22;9229;52.354;20.886;2023-06-24T01:30:00;18.50;99.60
18207;DHT22;9229;52.354;20.886;2023-06-24T01:35:11;18.50;99.90
18207;DHT22;9229;52.354;20.886;2023-06-24T01:40:18;18.40;99.90
18207;DHT22;9229;52.354;20.886;2023-06-24T01:45:26;18.40;99.90
18207;DHT22;9229;52.354;20.886;2023-06-24T01:50:32;18.30;99.90
18207;DHT22;9229;52.354;20.886;2023-06-24T01:55:38;18.30;99.90
18207;DHT22;9229;52.354;20.886;2023-06-24T02:00:43;18.30;99.90
18207;DHT22;9229;52.354;20.886;2023-06-24T02:05:48;18.20;99.90
18207;DHT22;9229;52.354;20.886;2023-06-24T02:10:54;18.20;99.90
18207;DHT22;9229;52.354;20.886;2023-06-24T02:15:59;18.20;99.90
18207;DHT22;9229;52.354;20.886;2023-06-24T02:21:05;18.20;99.90
18207;DHT22;9229;52.354;20.886;2023-06-24T02:26:08;18.20;99.90
18207;DHT22;9229;52.354;20.886;2023-06-24T02:31:12;18.10;99.90
18207;DHT22;9229;52.354;20.886;2023-06-24T02:36:16;18.10;99.90
18207;DHT22;9229;52.354;20.886;2023-06-24T02:41:18;18.10;99.90
18207;DHT22;9229;52.354;20.886;2023-06-24T02:46:24;18.10;99.90
18207;DHT22;9229;52.354;20.886;2023-06-24T02:51:33;18.10;99.90
18207;DHT22;9229;52.354;20.886;2023-06-24T02:56:38;18.10;99.90
18207;DHT22;9229;52.354;20.886;2023-06-24T03:01:43;18.10;99.90
18207;DHT22;9229;52.354;20.886;2023-06-24T03:06:48;18.20;99.90
18207;DHT22;9229;52.354;20.886;2023-06-24T03:11:52;18.30;99.90
18207;DHT22;9229;52.354;20.886;2023-06-24T03:17:03;18.30;99.90
18207;DHT22;9229;52.354;20.886;2023-06-24T03:22:07;18.40;99.90
18207;DHT22;9229;52.354;20.886;2023-06-24T03:27:10;18.40;99.90
18207;DHT22;9229;52.354;20.886;2023-06-24T03:32:17;18.50;99.90
18207;DHT22;9229;52.354;20.886;2023-06-24T03:37:22;18.70;99.90
18207;DHT22;9229;52.354;20.886;2023-06-24T03:42:25;18.70;99.90
18207;DHT22;9229;52.354;20.886;2023-06-24T03:47:30;18.70;99.90
18207;DHT22;9229;52.354;20.886;2023-06-24T03:52:35;18.80;99.90
18207;DHT22;9229;52.354;20.886;2023-06-24T03:57:38;18.90;99.90
18207;DHT22;9229;52.354;20.886;2023-06-24T04:02:44;19.00;99.90
18207;DHT22;9229;52.354;20.886;2023-06-24T04:07:48;19.10;99.90
18207;DHT22;9229;52.354;20.886;2023-06-24T04:12:52;19.20;99.90
18207;DHT22;9229;52.354;20.886;2023-06-24T04:17:54;19.30;99.90
18207;DHT22;9229;52.354;20.886;2023-06-24T04:22:58;19.40;99.90
18207;DHT22;9229;52.354;20.886;2023-06-24T04:28:04;19.50;99.90
18207;DHT22;9229;52.354;20.886;2023-06-24T04:33:09;19.70;99.90
18207;DHT22;9229;52.354;20.886;2023-06-24T04:38:12;20.00;99.90
18207;DHT22;9229;52.354;20.886;2023-06-24T04:43:19;20.20;99.90
18207;DHT22;9229;52.354;20.886;2023-06-24T04:48:30;20.50;99.90
18207;DHT22;9229;52.354;20.886;2023-06-24T04:53:33;20.70;99.90
18207;DHT22;9229;52.354;20.886;2023-06-24T04:58:35;21.00;99.90
18207;DHT22;9229;52.354;20.886;2023-06-24T05:03:37;21.10;99.90
18207;DHT22;9229;52.354;20.886;2023-06-24T05:08:40;21.10;99.90
18207;DHT22;9229;52.354;20.886;2023-06-24T05:13:42;21.30;99.90
18207;DHT22;9229;52.354;20.886;2023-06-24T05:18:45;21.40;99.90
18207;DHT22;9229;52.354;20.886;2023-06-24T05:23:49;21.60;99.90
18207;DHT22;9229;52.354;20.886;2023-06-24T05:28:51;21.80;99.90
18207;DHT22;9229;52.354;20.886;2023-06-24T05:33:53;22.00;99.90
18207;DHT22;9229;52.354;20.886;2023-06-24T05:38:56;22.00;99.90
18207;DHT22;9229;52.354;20.886;2023-06-24T05:44:02;22.20;99.90
18207;DHT22;9229;52.354;20.886;2023-06-24T05:49:05;22.80;99.90
18207;DHT22;9229;52.354;20.886;2023-06-24T05:54:08;24.00;99.90
18207;DHT22;9229;52.354;20.886;2023-06-24T05:59:12;24.70;97.20
18207;DHT22;9229;52.354;20.886;2023-06-24T06:04:14;25.20;95.30
18207;DHT22;9229;52.354;20.886;2023-06-24T06:09:26;25.50;93.70
18207;DHT22;9229;52.354;20.886;2023-06-24T06:14:28;25.50;93.10
18207;DHT22;9229;52.354;20.886;2023-06-24T06:19:32;25.30;92.80
18207;DHT22;9229;52.354;20.886;2023-06-24T06:24:35;25.20;92.30
18207;DHT22;9229;52.354;20.886;2023-06-24T06:29:37;25.20;92.50
18207;DHT22;9229;52.354;20.886;2023-06-24T06:34:41;25.40;92.50
18207;DHT22;9229;52.354;20.886;2023-06-24T06:39:45;26.20;91.10
18207;DHT22;9229;52.354;20.886;2023-06-24T06:44:47;26.70;90.70
18207;DHT22;9229;52.354;20.886;2023-06-24T06:49:50;27.10;88.90
18207;DHT22;9229;52.354;20.886;2023-06-24T06:54:54;27.00;86.80
18207;DHT22;9229;52.354;20.886;2023-06-24T06:59:57;26.90;84.10
18207;DHT22;9229;52.354;20.886;2023-06-24T07:05:00;27.00;82.70
18207;DHT22;9229;52.354;20.886;2023-06-24T07:10:05;26.80;80.30
18207;DHT22;9229;52.354;20.886;2023-06-24T07:15:11;26.50;76.90
18207;DHT22;9229;52.354;20.886;2023-06-24T07:20:17;26.30;77.00
18207;DHT22;9229;52.354;20.886;2023-06-24T07:25:21;26.60;76.20
18207;DHT22;9229;52.354;20.886;2023-06-24T07:30:24;26.70;76.10
18207;DHT22;9229;52.354;20.886;2023-06-24T07:35:26;26.90;76.00
18207;DHT22;9229;52.354;20.886;2023-06-24T07:40:29;27.50;74.40
18207;DHT22;9229;52.354;20.886;2023-06-24T07:45:31;27.90;71.10
18207;DHT22;9229;52.354;20.886;2023-06-24T07:50:34;28.10;69.50
18207;DHT22;9229;52.354;20.886;2023-06-24T07:55:38;28.20;68.70
18207;DHT22;9229;52.354;20.886;2023-06-24T08:00:43;29.10;67.60
18207;DHT22;9229;52.354;20.886;2023-06-24T08:05:47;29.70;64.90
18207;DHT22;9229;52.354;20.886;2023-06-24T08:10:51;30.20;63.30
18207;DHT22;9229;52.354;20.886;2023-06-24T08:15:56;29.70;61.80
18207;DHT22;9229;52.354;20.886;2023-06-24T08:20:59;29.60;61.80
18207;DHT22;9229;52.354;20.886;2023-06-24T08:26:03;29.90;59.10
18207;DHT22;9229;52.354;20.886;2023-06-24T08:31:05;29.70;58.30
18207;DHT22;9229;52.354;20.886;2023-06-24T08:36:08;29.30;59.40
18207;DHT22;9229;52.354;20.886;2023-06-24T08:41:11;29.00;60.40
18207;DHT22;9229;52.354;20.886;2023-06-24T08:46:15;28.90;61.30
18207;DHT22;9229;52.354;20.886;2023-06-24T08:51:20;28.50;61.50
18207;DHT22;9229;52.354;20.886;2023-06-24T08:56:25;28.90;60.90
18207;DHT22;9229;52.354;20.886;2023-06-24T09:01:27;28.70;61.80
18207;DHT22;9229;52.354;20.886;2023-06-24T09:06:31;28.50;60.30
18207;DHT22;9229;52.354;20.886;2023-06-24T09:11:36;28.60;61.10
18207;DHT22;9229;52.354;20.886;2023-06-24T09:16:38;28.40;60.90
18207;DHT22;9229;52.354;20.886;2023-06-24T09:21:40;28.30;61.80
18207;DHT22;9229;52.354;20.886;2023-06-24T09:26:49;28.60;61.50
18207;DHT22;9229;52.354;20.886;2023-06-24T09:31:51;28.80;59.00
18207;DHT22;9229;52.354;20.886;2023-06-24T09:36:56;28.70;59.60
18207;DHT22;9229;52.354;20.886;2023-06-24T09:42:01;28.90;59.30
18207;DHT22;9229;52.354;20.886;2023-06-24T09:47:04;29.10;59.30
18207;DHT22;9229;52.354;20.886;2023-06-24T09:52:07;29.10;58.10
18207;DHT22;9229;52.354;20.886;2023-06-24T09:57:10;28.80;57.60
18207;DHT22;9229;52.354;20.886;2023-06-24T10:02:14;28.90;57.60
18207;DHT22;9229;52.354;20.886;2023-06-24T10:07:18;29.30;57.40
18207;DHT22;9229;52.354;20.886;2023-06-24T10:12:21;28.90;57.30
18207;DHT22;9229;52.354;20.886;2023-06-24T10:17:27;28.80;57.80
18207;DHT22;9229;52.354;20.886;2023-06-24T10:22:31;28.70;58.60
18207;DHT22;9229;52.354;20.886;2023-06-24T10:27:42;28.70;58.60
18207;DHT22;9229;52.354;20.886;2023-06-24T10:32:51;29.20;58.70
18207;DHT22;9229;52.354;20.886;2023-06-24T10:37:56;29.40;58.40
18207;DHT22;9229;52.354;20.886;2023-06-24T10:43:02;28.80;59.20
18207;DHT22;9229;52.354;20.886;2023-06-24T10:48:05;28.10;60.70
18207;DHT22;9229;52.354;20.886;2023-06-24T10:53:08;27.60;62.00
18207;DHT22;9229;52.354;20.886;2023-06-24T10:58:12;27.10;61.00
18207;DHT22;9229;52.354;20.886;2023-06-24T11:03:17;26.90;61.60
18207;DHT22;9229;52.354;20.886;2023-06-24T11:08:20;26.60;62.30
18207;DHT22;9229;52.354;20.886;2023-06-24T11:13:27;26.20;63.00
18207;DHT22;9229;52.354;20.886;2023-06-24T11:18:37;25.90;64.90
18207;DHT22;9229;52.354;20.886;2023-06-24T11:23:39;25.80;65.60
18207;DHT22;9229;52.354;20.886;2023-06-24T11:28:42;25.40;67.00
18207;DHT22;9229;52.354;20.886;2023-06-24T11:33:48;25.40;67.70
18207;DHT22;9229;52.354;20.886;2023-06-24T11:38:50;25.30;67.10
18207;DHT22;9229;52.354;20.886;2023-06-24T11:43:54;25.20;66.50
18207;DHT22;9229;52.354;20.886;2023-06-24T11:49:04;25.30;68.40
18207;DHT22;9229;52.354;20.886;2023-06-24T11:54:06;25.20;69.30
18207;DHT22;9229;52.354;20.886;2023-06-24T11:59:17;25.10;69.70
18207;DHT22;9229;52.354;20.886;2023-06-24T12:04:20;25.10;70.20
18207;DHT22;9229;52.354;20.886;2023-06-24T12:09:24;25.20;69.50
18207;DHT22;9229;52.354;20.886;2023-06-24T12:14:28;25.40;69.30
18207;DHT22;9229;52.354;20.886;2023-06-24T12:19:30;25.40;68.00
18207;DHT22;9229;52.354;20.886;2023-06-24T12:24:32;25.50;67.80
18207;DHT22;9229;52.354;20.886;2023-06-24T12:29:39;25.40;67.50
18207;DHT22;9229;52.354;20.886;2023-06-24T12:35:03;25.20;67.90
18207;DHT22;9229;52.354;20.886;2023-06-24T12:40:33;25.20;68.10
18207;DHT22;9229;52.354;20.886;2023-06-24T12:45:45;25.40;68.20
18207;DHT22;9229;52.354;20.886;2023-06-24T12:50:47;25.60;67.00
18207;DHT22;9229;52.354;20.886;2023-06-24T12:55:53;25.90;66.40
18207;DHT22;9229;52.354;20.886;2023-06-24T13:00:57;26.90;65.00
18207;DHT22;9229;52.354;20.886;2023-06-24T13:06:01;27.40;63.90
18207;DHT22;9229;52.354;20.886;2023-06-24T13:11:03;27.40;62.30
18207;DHT22;9229;52.354;20.886;2023-06-24T13:16:06;27.20;61.60
18207;DHT22;9229;52.354;20.886;2023-06-24T13:21:11;26.60;61.20
18207;DHT22;9229;52.354;20.886;2023-06-24T13:26:13;26.20;61.90
18207;DHT22;9229;52.354;20.886;2023-06-24T13:31:17;26.10;62.00
18207;DHT22;9229;52.354;20.886;2023-06-24T13:36:30;26.00;62.30
18207;DHT22;9229;52.354;20.886;2023-06-24T13:41:36;26.20;62.10
18207;DHT22;9229;52.354;20.886;2023-06-24T13:46:45;26.10;62.30
18207;DHT22;9229;52.354;20.886;2023-06-24T13:51:47;25.90;63.00
18207;DHT22;9229;52.354;20.886;2023-06-24T13:56:49;25.70;63.50
18207;DHT22;9229;52.354;20.886;2023-06-24T14:01:53;25.60;63.80
18207;DHT22;9229;52.354;20.886;2023-06-24T14:06:57;25.30;64.40
18207;DHT22;9229;52.354;20.886;2023-06-24T14:17:28;24.80;66.10
18207;DHT22;9229;52.354;20.886;2023-06-24T14:22:33;24.80;66.90
18207;DHT22;9229;52.354;20.886;2023-06-24T14:27:42;24.80;67.20
18207;DHT22;9229;52.354;20.886;2023-06-24T14:32:52;25.00;67.40
18207;DHT22;9229;52.354;20.886;2023-06-24T14:37:54;25.20;67.30
18207;DHT22;9229;52.354;20.886;2023-06-24T14:42:56;25.20;67.00
18207;DHT22;9229;52.354;20.886;2023-06-24T14:48:03;25.00;67.30
18207;DHT22;9229;52.354;20.886;2023-06-24T14:53:06;24.90;68.20
18207;DHT22;9229;52.354;20.886;2023-06-24T14:58:10;24.60;68.60
18207;DHT22;9229;52.354;20.886;2023-06-24T15:03:14;24.40;69.50
18207;DHT22;9229;52.354;20.886;2023-06-24T15:08:17;24.20;70.60
18207;DHT22;9229;52.354;20.886;2023-06-24T15:13:19;24.10;71.50
18207;DHT22;9229;52.354;20.886;2023-06-24T15:18:24;24.10;73.20
18207;DHT22;9229;52.354;20.886;2023-06-24T15:23:26;24.00;74.50
18207;DHT22;9229;52.354;20.886;2023-06-24T15:28:33;24.00;75.80
18207;DHT22;9229;52.354;20.886;2023-06-24T15:33:36;24.00;76.60
18207;DHT22;9229;52.354;20.886;2023-06-24T15:38:38;24.10;76.60
18207;DHT22;9229;52.354;20.886;2023-06-24T15:43:44;24.50;76.60
18207;DHT22;9229;52.354;20.886;2023-06-24T15:48:47;24.50;76.10
18207;DHT22;9229;52.354;20.886;2023-06-24T15:53:49;24.60;76.30
18207;DHT22;9229;52.354;20.886;2023-06-24T15:58:51;24.50;76.80
18207;DHT22;9229;52.354;20.886;2023-06-24T16:03:54;24.60;77.30
18207;DHT22;9229;52.354;20.886;2023-06-24T16:08:56;24.60;76.50
18207;DHT22;9229;52.354;20.886;2023-06-24T16:13:58;24.70;76.30
18207;DHT22;9229;52.354;20.886;2023-06-24T16:19:02;24.90;73.00
18207;DHT22;9229;52.354;20.886;2023-06-24T16:24:04;25.00;64.80
18207;DHT22;9229;52.354;20.886;2023-06-24T16:29:06;25.10;62.00
18207;DHT22;9229;52.354;20.886;2023-06-24T16:34:10;25.20;59.90
18207;DHT22;9229;52.354;20.886;2023-06-24T16:39:12;25.30;59.20
18207;DHT22;9229;52.354;20.886;2023-06-24T16:44:14;25.30;59.00
18207;DHT22;9229;52.354;20.886;2023-06-24T16:49:17;25.40;59.10
18207;DHT22;9229;52.354;20.886;2023-06-24T16:54:19;25.50;58.30
18207;DHT22;9229;52.354;20.886;2023-06-24T16:59:22;25.70;58.00
18207;DHT22;9229;52.354;20.886;2023-06-24T17:04:25;25.40;58.60
18207;DHT22;9229;52.354;20.886;2023-06-24T17:09:27;25.20;59.30
18207;DHT22;9229;52.354;20.886;2023-06-24T17:14:29;25.00;60.40
18207;DHT22;9229;52.354;20.886;2023-06-24T17:19:35;24.70;61.50
18207;DHT22;9229;52.354;20.886;2023-06-24T17:24:37;24.50;62.90
18207;DHT22;9229;52.354;20.886;2023-06-24T17:29:48;24.40;63.00
18207;DHT22;9229;52.354;20.886;2023-06-24T17:34:57;24.40;63.90
18207;DHT22;9229;52.354;20.886;2023-06-24T17:40:01;24.30;64.30
18207;DHT22;9229;52.354;20.886;2023-06-24T17:45:10;24.20;64.40
18207;DHT22;9229;52.354;20.886;2023-06-24T17:50:15;24.10;64.90
18207;DHT22;9229;52.354;20.886;2023-06-24T17:55:18;24.00;65.00
18207;DHT22;9229;52.354;20.886;2023-06-24T18:00:20;23.90;65.70
18207;DHT22;9229;52.354;20.886;2023-06-24T18:05:24;23.70;65.80
18207;DHT22;9229;52.354;20.886;2023-06-24T18:10:27;23.60;66.50
18207;DHT22;9229;52.354;20.886;2023-06-24T18:15:29;23.40;67.60
18207;DHT22;9229;52.354;20.886;2023-06-24T18:20:34;23.30;68.80
18207;DHT22;9229;52.354;20.886;2023-06-24T18:25:36;23.10;70.20
18207;DHT22;9229;52.354;20.886;2023-06-24T18:30:38;22.90;71.20
18207;DHT22;9229;52.354;20.886;2023-06-24T18:35:42;22.70;72.10
18207;DHT22;9229;52.354;20.886;2023-06-24T18:40:44;22.50;73.00
18207;DHT22;9229;52.354;20.886;2023-06-24T18:45:46;22.30;74.20
18207;DHT22;9229;52.354;20.886;2023-06-24T18:50:52;22.10;75.20
18207;DHT22;9229;52.354;20.886;2023-06-24T18:55:54;21.90;76.00
18207;DHT22;9229;52.354;20.886;2023-06-24T19:00:56;21.70;76.70
18207;DHT22;9229;52.354;20.886;2023-06-24T19:06:00;21.50;77.20
18207;DHT22;9229;52.354;20.886;2023-06-24T19:11:02;21.30;77.80
18207;DHT22;9229;52.354;20.886;2023-06-24T19:16:04;21.10;78.60
18207;DHT22;9229;52.354;20.886;2023-06-24T19:21:10;20.90;79.30
18207;DHT22;9229;52.354;20.886;2023-06-24T19:26:12;20.70;80.10
18207;DHT22;9229;52.354;20.886;2023-06-24T19:31:15;20.50;80.90
18207;DHT22;9229;52.354;20.886;2023-06-24T19:36:19;20.50;82.00
18207;DHT22;9229;52.354;20.886;2023-06-24T19:41:23;20.30;82.80
18207;DHT22;9229;52.354;20.886;2023-06-24T19:46:25;20.20;83.40
18207;DHT22;9229;52.354;20.886;2023-06-24T19:51:29;20.10;83.80
18207;DHT22;9229;52.354;20.886;2023-06-24T19:56:34;20.10;84.30
18207;DHT22;9229;52.354;20.886;2023-06-24T20:01:36;19.90;84.50
18207;DHT22;9229;52.354;20.886;2023-06-24T20:06:41;19.90;84.90
18207;DHT22;9229;52.354;20.886;2023-06-24T20:11:50;19.80;85.20
18207;DHT22;9229;52.354;20.886;2023-06-24T20:16:56;19.70;85.70
18207;DHT22;9229;52.354;20.886;2023-06-24T20:22:04;19.60;86.20
18207;DHT22;9229;52.354;20.886;2023-06-24T20:27:06;19.70;87.40
18207;DHT22;9229;52.354;20.886;2023-06-24T20:32:09;19.60;88.30
18207;DHT22;9229;52.354;20.886;2023-06-24T20:37:17;19.60;89.30
18207;DHT22;9229;52.354;20.886;2023-06-24T20:42:25;19.50;90.30
18207;DHT22;9229;52.354;20.886;2023-06-24T20:47:27;19.30;90.90
18207;DHT22;9229;52.354;20.886;2023-06-24T20:52:32;19.20;91.60
18207;DHT22;9229;52.354;20.886;2023-06-24T20:57:35;19.10;92.30
18207;DHT22;9229;52.354;20.886;2023-06-24T21:02:37;19.00;93.10
18207;DHT22;9229;52.354;20.886;2023-06-24T21:07:40;18.90;93.80
18207;DHT22;9229;52.354;20.886;2023-06-24T21:12:42;18.80;94.40
18207;DHT22;9229;52.354;20.886;2023-06-24T21:17:45;18.70;94.70
18207;DHT22;9229;52.354;20.886;2023-06-24T21:22:57;18.60;95.10
18207;DHT22;9229;52.354;20.886;2023-06-24T21:28:01;18.40;96.00
18207;DHT22;9229;52.354;20.886;2023-06-24T21:33:03;18.30;96.80
18207;DHT22;9229;52.354;20.886;2023-06-24T21:38:08;18.20;97.40
18207;DHT22;9229;52.354;20.886;2023-06-24T21:43:11;18.00;98.20
18207;DHT22;9229;52.354;20.886;2023-06-24T21:48:15;17.90;98.90
18207;DHT22;9229;52.354;20.886;2023-06-24T21:53:20;17.80;99.80
18207;DHT22;9229;52.354;20.886;2023-06-24T21:58:35;17.60;99.90
18207;DHT22;9229;52.354;20.886;2023-06-24T22:03:49;17.30;99.90
18207;DHT22;9229;52.354;20.886;2023-06-24T22:08:52;17.30;99.90
18207;DHT22;9229;52.354;20.886;2023-06-24T22:13:54;17.20;99.90
18207;DHT22;9229;52.354;20.886;2023-06-24T22:18:56;17.10;99.90
18207;DHT22;9229;52.354;20.886;2023-06-24T22:23:59;17.10;99.90
18207;DHT22;9229;52.354;20.886;2023-06-24T22:29:01;17.10;99.90
18207;DHT22;9229;52.354;20.886;2023-06-24T22:34:03;17.00;99.90
18207;DHT22;9229;52.354;20.886;2023-06-24T22:39:06;17.20;99.90
18207;DHT22;9229;52.354;20.886;2023-06-24T22:44:08;17.10;99.90
18207;DHT22;9229;52.354;20.886;2023-06-24T22:49:10;17.10;99.90
18207;DHT22;9229;52.354;20.886;2023-06-24T22:54:13;17.00;99.90
18207;DHT22;9229;52.354;20.886;2023-06-24T22:59:15;17.00;99.90
18207;DHT22;9229;52.354;20.886;2023-06-24T23:04:17;16.90;99.90
18207;DHT22;9229;52.354;20.886;2023-06-24T23:09:23;16.80;99.90
18207;DHT22;9229;52.354;20.886;2023-06-24T23:14:26;16.70;99.90
18207;DHT22;9229;52.354;20.886;2023-06-24T23:19:29;16.60;99.90
18207;DHT22;9229;52.354;20.886;2023-06-24T23:24:33;16.60;99.90
18207;DHT22;9229;52.354;20.886;2023-06-24T23:29:36;16.50;99.90
18207;DHT22;9229;52.354;20.886;2023-06-24T23:34:39;16.50;99.90
18207;DHT22;9229;52.354;20.886;2023-06-24T23:39:46;16.40;99.90
18207;DHT22;9229;52.354;20.886;2023-06-24T23:44:48;16.30;99.90
18207;DHT22;9229;52.354;20.886;2023-06-24T23:49:50;16.30;99.90
18207;DHT22;9229;52.354;20.886;2023-06-24T23:54:55;16.30;99.90
18207;DHT22;9229;52.354;20.886;2023-06-24T23:59:57;16.20;99.90
